Remontnoe, Russia
Current Conditions -  °F | °C
As of 3:00 PM on Monday 24 Nov 2014 (Local Time) from URWI Reporting Station
Blowing Snow Blowing Snow  
Wind Chill:   Ceiling: 700
Heat Index: 21°   Visibility: 3mi
Dew Point: 21°   Wind: 18mph
Humidity: 100%   Direction: 80°E
Pressure: 30.53"   Gusts: 25mph
Location:  46.57°N, 43.67°E
Report Text: URWI 241200Z 08008G11MPS 5000 DRSN OVC007 M06/M06 Q1034 NOSIG
Loading
Personal Weather Stations






























Interactive Weather Map New forecast layout! Learn more

10-Day Weather Forecast

Advertisements
Track Severe Weather on mobile